Time;durP1;ratioP1;P1;durP2;ratioP2;P2;SDS_P1;SDS_P2;PMS_P1;PMS_P2;Temp;Humidity;BMP_temperature;BMP_pressure;BME280_temperature;BME280_humidity;BME280_pressure;Samples;Min_cycle;Max_cycle;Signal;HPM_P1;HPM_P2
2024/01/02 00:00:16;;;;;;;;;61.00;48.50;;;;;6.11;54.69;99328.03;5028338;28;8852;-80
2024/01/02 00:03:07;;;;;;;;;59.75;46.75;;;;;6.01;54.85;99328.06;5014420;28;9609;-78
2024/01/02 00:05:36;;;;;;;;;52.25;44.00;;;;;6.10;54.59;99330.63;5028079;28;8868;-77
2024/01/02 00:08:06;;;;;;;;;60.25;50.00;;;;;6.00;55.08;99328.94;5028209;28;8948;-78
2024/01/02 00:10:35;;;;;;;;;61.50;51.75;;;;;5.95;55.48;99325.50;5011359;28;8870;-76
2024/01/02 00:13:04;;;;;;;;;62.75;51.50;;;;;6.02;55.07;99327.19;5028317;28;8863;-78
2024/01/02 00:15:33;;;;;;;;;62.75;51.25;;;;;6.06;54.82;99323.72;5016402;28;8962;-79
2024/01/02 00:18:02;;;;;;;;;63.50;53.00;;;;;6.13;55.02;99333.19;5033239;28;8860;-77
2024/01/02 00:20:32;;;;;;;;;65.00;52.50;;;;;6.18;54.76;99341.03;5033435;28;8844;-78
2024/01/02 00:23:02;;;;;;;;;63.50;53.25;;;;;6.19;54.55;99345.34;5070748;28;8842;-77
2024/01/02 00:25:31;;;;;;;;;66.75;54.50;;;;;6.24;54.63;99339.22;5070856;28;8858;-76
2024/01/02 00:28:00;;;;;;;;;60.50;50.75;;;;;6.26;54.46;99340.06;5070831;28;8870;-76
2024/01/02 00:30:31;;;;;;;;;68.75;55.25;;;;;6.28;54.89;99329.63;5052106;28;8880;-78
2024/01/02 00:33:03;;;;;;;;;66.00;55.00;;;;;6.30;54.03;99333.97;5068343;28;8916;-78
2024/01/02 00:35:34;;;;;;;;;63.50;51.75;;;;;6.36;54.36;99338.31;5019758;28;8988;-78
2024/01/02 00:38:04;;;;;;;;;66.50;54.00;;;;;6.39;53.70;99342.63;5068514;28;8839;-77
2024/01/02 00:40:32;;;;;;;;;68.50;55.50;;;;;6.39;54.08;99340.88;5068517;28;8865;-77
2024/01/02 00:43:02;;;;;;;;;64.75;52.00;;;;;6.39;53.99;99338.25;5068542;28;8854;-78
2024/01/02 00:45:31;;;;;;;;;68.50;56.00;;;;;6.39;53.78;99340.88;5001570;28;8850;-78
2024/01/02 00:48:00;;;;;;;;;66.00;54.50;;;;;6.40;54.33;99340.00;5068019;28;9644;-78
2024/01/02 00:50:30;;;;;;;;;68.00;54.75;;;;;6.44;54.18;99346.94;5051890;28;8900;-78
2024/01/02 00:53:03;;;;;;;;;59.75;49.75;;;;;6.42;54.10;99342.59;5070102;28;8942;-78
2024/01/02 00:55:32;;;;;;;;;57.50;47.00;;;;;6.44;54.36;99338.25;5068477;28;8988;-78
2024/01/02 00:58:03;;;;;;;;;54.00;45.50;;;;;6.45;53.94;99334.72;5069471;28;8873;-78
2024/01/02 01:00:32;;;;;;;;;56.75;47.25;;;;;6.47;54.06;99335.59;5069130;28;8843;-77
2024/01/02 01:03:01;;;;;;;;;59.75;47.50;;;;;6.48;53.54;99332.09;5051146;28;8854;-78
2024/01/02 01:05:30;;;;;;;;;50.50;43.75;;;;;6.47;53.17;99325.13;5069471;28;8881;-78
2024/01/02 01:08:01;;;;;;;;;59.00;47.75;;;;;6.48;54.14;99319.06;5068203;28;8966;-78
2024/01/02 01:10:29;;;;;;;;;57.00;46.00;;;;;6.46;53.05;99321.66;5068338;28;8858;-77
2024/01/02 01:12:59;;;;;;;;;56.50;47.00;;;;;6.42;53.09;99317.34;5068185;28;8862;-78
2024/01/02 01:15:27;;;;;;;;;56.00;46.50;;;;;6.41;53.68;99326.06;5069183;28;8956;-77
2024/01/02 01:17:57;;;;;;;;;58.25;49.00;;;;;6.45;53.19;99327.75;5069102;28;8850;-77
2024/01/02 01:20:26;;;;;;;;;61.50;48.75;;;;;6.43;52.93;99323.44;5069059;28;8861;-78
2024/01/02 01:22:55;;;;;;;;;59.25;48.75;;;;;6.41;52.91;99328.66;5067673;28;8873;-78
2024/01/02 01:25:26;;;;;;;;;55.00;44.50;;;;;6.38;53.55;99327.81;5069085;28;8850;-78
2024/01/02 01:27:55;;;;;;;;;55.75;44.25;;;;;6.37;52.54;99326.97;5067634;28;10210;-77
2024/01/02 01:30:24;;;;;;;;;50.00;44.00;;;;;6.37;52.99;99333.94;5067880;28;8846;-80
2024/01/02 01:32:53;;;;;;;;;52.25;42.75;;;;;6.40;53.21;99333.88;5067461;28;9494;-79
2024/01/02 01:35:22;;;;;;;;;59.75;45.75;;;;;6.37;52.51;99328.72;5067709;28;9023;-78
2024/01/02 01:37:51;;;;;;;;;52.50;44.00;;;;;6.28;52.68;99340.06;5068593;28;8854;-79
2024/01/02 01:40:20;;;;;;;;;52.00;40.25;;;;;6.25;52.88;99329.66;5067702;28;9119;-80
2024/01/02 01:42:50;;;;;;;;;49.75;42.75;;;;;6.28;52.86;99332.25;5050799;28;8842;-77
2024/01/02 01:45:19;;;;;;;;;49.75;43.00;;;;;6.29;52.27;99328.78;5067512;28;8858;-77
2024/01/02 01:47:48;;;;;;;;;45.25;40.00;;;;;6.29;52.95;99327.00;5085073;28;8850;-77
2024/01/02 01:50:18;;;;;;;;;42.00;38.75;;;;;6.30;52.75;99326.16;5086561;28;8914;-78
2024/01/02 01:52:47;;;;;;;;;40.50;37.75;;;;;6.29;52.10;99326.16;5086344;28;8829;-77
2024/01/02 01:55:17;;;;;;;;;37.80;36.80;;;;;6.29;52.47;99326.16;5036508;28;8908;-77
2024/01/02 01:57:46;;;;;;;;;31.80;29.80;;;;;6.31;52.35;99327.00;5069522;28;8866;-77
2024/01/02 02:00:16;;;;;;;;;43.75;37.75;;;;;6.34;52.58;99334.81;5020250;28;9035;-78
2024/01/02 02:02:46;;;;;;;;;44.00;39.50;;;;;6.36;52.49;99330.47;5069519;28;8877;-78
2024/01/02 02:05:18;;;;;;;;;41.20;37.00;;;;;6.38;52.37;99326.09;5069722;28;8887;-76
2024/01/02 02:07:48;;;;;;;;;41.80;37.60;;;;;6.36;52.36;99326.97;5087347;28;8841;-77
2024/01/02 02:10:17;;;;;;;;;41.40;37.00;;;;;6.36;51.91;99327.84;5086511;28;9625;-79
2024/01/02 02:12:46;;;;;;;;;37.20;34.60;;;;;6.32;52.13;99331.34;5036832;28;8864;-78
2024/01/02 02:15:16;;;;;;;;;0.60;0.60;;;;;6.36;52.50;99322.63;5087016;28;8928;-78
2024/01/02 02:17:46;;;;;;;;;27.80;24.60;;;;;6.41;52.42;99323.44;5090060;28;8853;-77
2024/01/02 02:20:16;;;;;;;;;37.20;34.40;;;;;6.42;52.05;99319.97;5090109;28;8923;-77
2024/01/02 02:22:49;;;;;;;;;38.20;32.80;;;;;6.50;52.17;99317.28;5071419;28;8925;-78
2024/01/02 02:25:19;;;;;;;;;38.20;33.40;;;;;6.46;52.08;99324.28;5088069;28;8846;-78
2024/01/02 02:27:49;;;;;;;;;36.00;34.00;;;;;6.49;52.06;99321.66;5072189;28;8873;-78
2024/01/02 02:30:18;;;;;;;;;38.00;36.00;;;;;6.53;52.48;99322.50;5029636;28;8860;-77
2024/01/02 02:32:47;;;;;;;;;37.60;33.20;;;;;6.52;52.12;99325.97;4965737;28;9486;-79
2024/01/02 02:35:16;;;;;;;;;46.50;40.50;;;;;6.53;51.29;99338.19;5029653;28;8856;-79
2024/01/02 02:37:46;;;;;;;;;47.75;40.50;;;;;6.52;51.87;99336.44;5029733;28;9625;-77
2024/01/02 02:40:16;;;;;;;;;52.75;40.25;;;;;6.52;51.95;99329.44;4996998;28;8879;-78
2024/01/02 02:42:45;;;;;;;;;34.80;34.40;;;;;6.52;51.55;99332.06;5029893;28;8870;-77
2024/01/02 02:45:14;;;;;;;;;32.80;32.80;;;;;6.55;51.71;99339.03;4997701;28;8846;-77
2024/01/02 02:47:43;;;;;;;;;26.00;25.60;;;;;6.57;51.62;99337.25;4977394;28;8850;-78
2024/01/02 02:50:12;;;;;;;;;23.20;21.80;;;;;6.58;51.29;99344.19;4993344;28;8854;-77
2024/01/02 02:52:42;;;;;;;;;30.80;26.60;;;;;6.60;50.86;99339.84;5026244;28;8936;-80
2024/01/02 02:55:16;;;;;;;;;32.40;32.00;;;;;6.56;51.53;99337.28;4993246;28;8858;-77
2024/01/02 02:57:45;;;;;;;;;33.80;29.80;;;;;6.56;51.57;99327.69;5010208;28;8859;-79
2024/01/02 03:00:14;;;;;;;;;29.20;25.40;;;;;6.57;51.90;99323.31;5009804;28;8839;-77
2024/01/02 03:02:44;;;;;;;;;36.00;34.40;;;;;6.59;51.08;99327.66;5065517;28;9681;-77
2024/01/02 03:05:14;;;;;;;;;35.40;33.20;;;;;6.60;51.13;99324.16;5049217;28;8850;-77
2024/01/02 03:07:43;;;;;;;;;35.60;33.60;;;;;6.58;51.54;99320.69;5049187;28;9572;-77
2024/01/02 03:10:14;;;;;;;;;27.00;25.40;;;;;6.58;51.51;99325.06;5049082;28;8862;-78
2024/01/02 03:12:45;;;;;;;;;28.20;28.20;;;;;6.60;51.62;99311.09;5000777;28;8858;-77
2024/01/02 03:15:15;;;;;;;;;25.40;22.40;;;;;6.60;51.25;99313.72;5032205;28;8868;-76
2024/01/02 03:17:44;;;;;;;;;26.60;25.80;;;;;6.62;51.83;99305.88;5036043;28;8881;-77
2024/01/02 03:20:13;;;;;;;;;26.80;24.60;;;;;6.65;52.33;99311.09;5086806;28;8980;-78
2024/01/02 03:22:42;;;;;;;;;29.00;25.00;;;;;6.68;51.70;99313.66;5072005;28;8851;-77
2024/01/02 03:25:11;;;;;;;;;28.00;24.20;;;;;6.68;51.52;99322.38;5072213;28;8858;-78
2024/01/02 03:27:40;;;;;;;;;26.60;24.40;;;;;6.67;51.50;99315.41;5036293;28;8862;-77
2024/01/02 03:30:11;;;;;;;;;27.40;27.20;;;;;6.73;51.17;99311.88;5036592;28;8858;-78
2024/01/02 03:32:40;;;;;;;;;23.40;20.40;;;;;6.73;50.89;99306.66;5071351;28;8853;-78
2024/01/02 03:35:11;;;;;;;;;25.80;25.00;;;;;6.78;51.30;99310.09;5071423;28;8862;-76
2024/01/02 03:37:41;;;;;;;;;27.60;23.20;;;;;6.76;51.14;99303.13;5052548;28;8885;-76
2024/01/02 03:40:10;;;;;;;;;24.20;22.80;;;;;6.76;51.19;99306.63;5070120;28;8858;-78
2024/01/02 03:42:40;;;;;;;;;24.80;23.20;;;;;6.71;51.36;99296.19;5070273;28;8916;-78
2024/01/02 03:45:10;;;;;;;;;18.60;18.60;;;;;6.60;50.99;99290.22;5069850;28;8970;-79
2024/01/02 03:47:40;;;;;;;;;19.60;18.00;;;;;6.48;50.93;99285.97;5071242;28;8979;-78
2024/01/02 03:50:09;;;;;;;;;19.20;17.60;;;;;6.33;51.99;99291.31;5071074;28;8870;-77
2024/01/02 03:52:38;;;;;;;;;19.20;17.80;;;;;6.44;51.34;99294.72;5052142;28;8968;-76
2024/01/02 03:55:08;;;;;;;;;21.00;18.00;;;;;6.47;52.15;99289.47;5070689;28;9677;-78
2024/01/02 03:57:37;;;;;;;;;19.00;18.60;;;;;6.51;51.78;99288.56;5003336;28;8993;-79
2024/01/02 04:00:08;;;;;;;;;19.60;18.20;;;;;6.55;51.50;99293.75;5070698;28;8900;-79
2024/01/02 04:02:39;;;;;;;;;25.40;23.20;;;;;6.60;51.95;99291.97;5036065;28;8895;-77
2024/01/02 04:05:10;;;;;;;;;29.40;27.80;;;;;6.59;51.73;99296.34;5070555;28;8866;-78
2024/01/02 04:07:40;;;;;;;;;28.00;24.60;;;;;6.57;51.54;99289.38;5070497;28;8927;-78
2024/01/02 04:10:09;;;;;;;;;32.80;29.00;;;;;6.52;52.20;99281.59;5035116;28;8865;-77
2024/01/02 04:12:38;;;;;;;;;30.00;29.80;;;;;6.57;51.99;99281.53;5071757;28;9646;-76
2024/01/02 04:15:07;;;;;;;;;4.00;2.00;;;;;6.51;51.24;99280.72;5070051;28;8851;-77
2024/01/02 04:17:38;;;;;;;;;31.40;29.80;;;;;6.47;51.42;99278.13;5069013;28;8866;-79
2024/01/02 04:20:07;;;;;;;;;32.60;31.40;;;;;6.22;51.84;99283.56;5070519;28;8854;-77
2024/01/02 04:22:37;;;;;;;;;32.80;29.00;;;;;6.19;51.51;99288.81;5068701;28;9711;-79
2024/01/02 04:25:07;;;;;;;;;32.20;30.00;;;;;6.19;51.77;99291.44;5070410;28;9036;-78
2024/01/02 04:27:36;;;;;;;;;24.80;22.40;;;;;6.19;51.90;99285.31;5035437;28;8869;-78
2024/01/02 04:30:06;;;;;;;;;18.60;17.00;;;;;6.11;51.61;99280.16;5085589;28;8862;-78
2024/01/02 04:32:35;;;;;;;;;24.60;23.40;;;;;5.88;52.54;99278.56;5069830;28;8866;-78
2024/01/02 04:35:07;;;;;;;;;22.60;22.60;;;;;5.73;53.00;99278.66;5068560;28;8842;-78
2024/01/02 04:37:36;;;;;;;;;22.00;19.00;;;;;5.56;53.61;99285.72;5069684;28;8860;-77
2024/01/02 04:40:06;;;;;;;;;23.80;21.00;;;;;5.39;54.29;99297.06;5069995;28;8959;-78
2024/01/02 04:42:35;;;;;;;;;27.00;24.00;;;;;5.56;53.32;99288.31;5070758;28;8873;-78
2024/01/02 04:45:05;;;;;;;;;24.00;23.40;;;;;5.63;53.48;99292.63;5069660;28;8858;-77
2024/01/02 04:47:34;;;;;;;;;20.80;18.60;;;;;5.62;53.05;99289.13;5069864;28;8846;-78
2024/01/02 04:50:05;;;;;;;;;25.60;23.00;;;;;5.65;53.28;99291.75;5069334;28;8854;-77
2024/01/02 04:52:35;;;;;;;;;36.00;35.80;;;;;5.69;53.36;99287.38;5069652;28;8943;-77
2024/01/02 04:55:04;;;;;;;;;34.80;31.20;;;;;5.71;53.41;99289.09;5017376;28;8873;-76
2024/01/02 04:57:33;;;;;;;;;27.20;23.00;;;;;5.51;53.59;99291.81;5069591;28;8846;-80
2024/01/02 05:00:02;;;;;;;;;22.80;21.40;;;;;5.33;53.99;99294.50;5064253;28;9003;-78
2024/01/02 05:02:32;;;;;;;;;31.40;24.40;;;;;5.22;55.09;99291.03;5049362;28;8868;-80
2024/01/02 05:05:01;;;;;;;;;17.00;17.00;;;;;5.13;55.21;99287.59;5049371;28;9599;-78
2024/01/02 05:07:32;;;;;;;;;34.20;31.60;;;;;5.24;54.65;99284.91;5049413;28;8852;-80
2024/01/02 05:10:01;;;;;;;;;39.20;33.40;;;;;5.29;54.22;99275.34;5049337;28;8857;-78
2024/01/02 05:12:30;;;;;;;;;12.40;12.00;;;;;5.19;54.59;99275.38;5049498;28;8864;-77
2024/01/02 05:14:59;;;;;;;;;14.00;12.20;;;;;5.12;54.89;99274.56;5022409;28;8967;-78
2024/01/02 05:17:28;;;;;;;;;15.00;15.00;;;;;5.19;54.61;99280.59;5064862;28;9636;-77
2024/01/02 05:19:57;;;;;;;;;19.80;17.20;;;;;5.22;54.57;99291.03;5064274;28;8843;-78
2024/01/02 05:22:26;;;;;;;;;24.60;20.20;;;;;5.24;54.28;99294.47;5030867;28;8901;-78
2024/01/02 05:24:56;;;;;;;;;23.40;22.60;;;;;5.28;54.17;99291.00;5049340;28;9004;-77
2024/01/02 05:27:25;;;;;;;;;23.00;22.20;;;;;5.29;54.08;99284.91;5049092;28;8847;-78
2024/01/02 05:29:54;;;;;;;;;21.00;20.60;;;;;5.32;53.87;99293.63;5052650;28;8845;-77
2024/01/02 05:32:23;;;;;;;;;30.40;24.40;;;;;5.38;53.85;99290.13;5069418;28;8907;-79
2024/01/02 05:34:53;;;;;;;;;28.20;24.60;;;;;5.34;53.61;99289.28;5033823;28;8851;-78
2024/01/02 05:37:22;;;;;;;;;20.80;17.60;;;;;5.34;54.00;99289.28;5068653;28;9644;-78
2024/01/02 05:39:50;;;;;;;;;24.00;21.80;;;;;5.29;54.16;99293.59;5068787;28;8996;-78
2024/01/02 05:42:21;;;;;;;;;17.40;16.20;;;;;5.19;54.86;99298.84;5068891;28;8873;-78
2024/01/02 05:44:50;;;;;;;;;18.00;17.80;;;;;5.22;54.19;99306.66;5069143;28;8880;-78
2024/01/02 05:47:19;;;;;;;;;19.00;17.80;;;;;5.22;54.42;99311.88;5067896;28;8846;-77
2024/01/02 05:49:48;;;;;;;;;36.20;35.60;;;;;5.26;53.74;99309.22;5068399;28;8983;-77
2024/01/02 05:52:17;;;;;;;;;43.50;39.50;;;;;5.30;53.93;99316.22;5068556;28;8842;-80
2024/01/02 05:54:46;;;;;;;;;35.60;35.60;;;;;5.33;53.86;99313.59;5069860;28;8835;-79
2024/01/02 05:57:15;;;;;;;;;34.40;31.40;;;;;5.32;53.90;99321.41;5034496;28;8850;-78
2024/01/02 05:59:45;;;;;;;;;36.20;31.60;;;;;5.31;53.65;99310.13;5069319;28;8850;-78
2024/01/02 06:02:15;;;;;;;;;32.00;29.80;;;;;5.33;53.66;99308.38;5068879;28;8894;-79
2024/01/02 06:04:44;;;;;;;;;31.20;30.60;;;;;5.35;53.75;99318.81;5068418;28;8858;-78
2024/01/02 06:07:13;;;;;;;;;37.00;34.60;;;;;5.37;53.42;99311.84;5068663;28;8857;-79
2024/01/02 06:09:41;;;;;;;;;33.20;31.80;;;;;5.39;53.46;99320.53;5069406;28;8887;-80
2024/01/02 06:12:11;;;;;;;;;79.75;63.00;;;;;5.41;53.77;99320.53;5051256;28;9639;-78
2024/01/02 06:14:39;;;;;;;;;69.50;55.75;;;;;5.42;53.47;99330.94;5068727;28;8891;-78
2024/01/02 06:17:11;;;;;;;;;33.40;32.80;;;;;5.42;53.79;99332.69;5068401;28;8939;-78
2024/01/02 06:19:40;;;;;;;;;32.40;31.20;;;;;5.40;53.59;99329.22;5068455;28;9628;-78
2024/01/02 06:22:09;;;;;;;;;25.60;23.80;;;;;5.35;54.07;99337.06;5068527;28;8854;-80
2024/01/02 06:24:38;;;;;;;;;21.80;21.60;;;;;5.38;53.64;99336.16;5068263;28;9573;-78
2024/01/02 06:27:08;;;;;;;;;30.60;26.00;;;;;5.40;54.19;99342.28;5068841;28;8846;-79
2024/01/02 06:29:37;;;;;;;;;31.00;27.40;;;;;5.43;53.76;99339.63;5067432;28;8835;-78
2024/01/02 06:32:07;;;;;;;;;30.60;27.00;;;;;5.44;53.93;99352.66;5068405;28;8850;-77
2024/01/02 06:34:37;;;;;;;;;38.60;37.20;;;;;5.47;53.53;99349.16;5068829;28;8872;-77
2024/01/02 06:37:07;;;;;;;;;40.50;37.75;;;;;5.49;53.72;99352.63;5068376;28;8882;-77
2024/01/02 06:39:36;;;;;;;;;45.25;40.50;;;;;5.51;53.49;99353.53;5068264;28;8885;-77
2024/01/02 06:42:05;;;;;;;;;58.00;47.00;;;;;5.52;53.72;99345.69;5068262;28;8862;-77
2024/01/02 06:44:34;;;;;;;;;50.00;43.00;;;;;5.56;53.67;99356.09;5068188;28;8894;-78
2024/01/02 06:47:03;;;;;;;;;43.75;38.00;;;;;5.59;53.68;99364.78;5049669;28;8858;-76
2024/01/02 06:49:32;;;;;;;;;36.60;36.60;;;;;5.65;53.47;99364.75;5068352;28;8944;-76
2024/01/02 06:52:03;;;;;;;;;44.25;40.50;;;;;5.72;53.62;99363.88;5066933;28;9078;-77
2024/01/02 06:54:32;;;;;;;;;51.75;43.50;;;;;5.77;52.99;99369.03;5032395;28;8985;-78
2024/01/02 06:57:01;;;;;;;;;45.25;40.50;;;;;5.84;52.89;99372.50;5050047;28;8834;-78
2024/01/02 06:59:30;;;;;;;;;47.75;42.00;;;;;5.88;52.72;99377.69;5069980;28;8865;-78
2024/01/02 07:01:59;;;;;;;;;46.00;41.50;;;;;5.93;53.01;99367.25;5053488;28;8826;-79
2024/01/02 07:04:28;;;;;;;;;53.75;44.00;;;;;5.99;52.63;99359.38;5070343;28;8932;-76
2024/01/02 07:06:58;;;;;;;;;31.00;29.20;;;;;5.95;52.26;99352.47;5071379;28;8919;-77
2024/01/02 07:09:28;;;;;;;;;36.80;33.60;;;;;5.93;51.99;99360.28;5070419;28;8854;-76
2024/01/02 07:11:58;;;;;;;;;46.25;40.75;;;;;6.03;52.36;99349.81;5071453;28;8814;-77
2024/01/02 07:14:26;;;;;;;;;49.25;40.50;;;;;6.10;51.95;99352.38;5071277;28;8920;-77
2024/01/02 07:16:55;;;;;;;;;36.00;35.75;;;;;5.99;52.23;99350.69;5069990;28;9627;-77
2024/01/02 07:19:24;;;;;;;;;52.75;42.75;;;;;6.01;51.88;99355.03;5071016;28;8898;-77
2024/01/02 07:21:53;;;;;;;;;44.25;39.50;;;;;6.12;51.96;99368.03;5071313;28;8857;-78
2024/01/02 07:24:22;;;;;;;;;47.50;41.00;;;;;6.23;52.01;99363.59;5071194;28;9628;-78
2024/01/02 07:26:53;;;;;;;;;51.50;43.75;;;;;6.35;51.39;99357.44;5071258;28;8862;-79
2024/01/02 07:29:22;;;;;;;;;63.50;49.25;;;;;6.42;50.58;99360.88;5070962;28;8870;-79
2024/01/02 07:31:51;;;;;;;;;69.75;56.00;;;;;6.55;51.34;99357.31;5070974;28;8838;-79
2024/01/02 07:34:20;;;;;;;;;58.75;48.75;;;;;6.66;50.42;99354.59;5071124;28;9001;-79
2024/01/02 07:36:49;;;;;;;;;57.75;48.00;;;;;6.78;50.60;99356.25;5071041;28;8858;-77
2024/01/02 07:39:18;;;;;;;;;55.50;46.25;;;;;6.88;50.04;99355.28;5069735;28;8839;-76
2024/01/02 07:41:47;;;;;;;;;55.75;47.50;;;;;6.98;49.72;99356.09;5071166;28;8846;-80
2024/01/02 07:44:18;;;;;;;;;95.00;85.00;;;;;7.09;50.13;99352.47;5069718;28;8948;-77
2024/01/02 07:46:47;;;;;;;;;85.25;65.50;;;;;7.20;49.57;99344.53;5049943;28;9941;-76
2024/01/02 07:49:16;;;;;;;;;78.25;62.75;;;;;7.29;49.82;99346.22;5016085;28;9708;-76
2024/01/02 07:51:46;;;;;;;;;67.50;55.75;;;;;7.39;49.71;99339.13;5051172;28;8844;-77
2024/01/02 07:54:15;;;;;;;;;74.75;59.50;;;;;7.45;48.88;99345.13;5050871;28;8950;-77
2024/01/02 07:56:44;;;;;;;;;67.25;55.75;;;;;7.45;48.13;99347.75;5030900;28;8850;-78
2024/01/02 07:59:17;;;;;;;;;62.75;52.75;;;;;7.45;48.66;99345.13;5070618;28;8877;-77
2024/01/02 08:01:48;;;;;;;;;59.75;49.50;;;;;7.39;47.96;99337.38;5070495;28;8842;-77
2024/01/02 08:04:17;;;;;;;;;54.75;45.75;;;;;7.31;48.96;99344.44;5069161;28;8969;-77
2024/01/02 08:06:46;;;;;;;;;57.75;46.75;;;;;7.36;48.41;99344.38;5035161;28;8834;-77
2024/01/02 08:09:15;;;;;;;;;48.75;42.00;;;;;7.16;48.31;99347.22;5068954;28;8894;-79
2024/01/02 08:11:44;;;;;;;;;52.00;45.00;;;;;7.14;48.08;99352.47;5069963;28;8858;-77
2024/01/02 08:14:14;;;;;;;;;56.25;46.75;;;;;7.16;48.62;99342.84;5069524;28;8997;-78
2024/01/02 08:16:44;;;;;;;;;56.75;47.25;;;;;7.21;48.32;99337.56;5070207;28;8846;-77
2024/01/02 08:19:14;;;;;;;;;60.75;49.00;;;;;7.42;48.63;99333.84;5068650;28;8967;-77
2024/01/02 08:21:43;;;;;;;;;52.75;43.75;;;;;7.41;47.62;99332.97;5069773;28;8862;-77
2024/01/02 08:24:12;;;;;;;;;76.00;60.00;;;;;7.60;48.14;99335.38;5035290;28;8920;-77
2024/01/02 08:26:42;;;;;;;;;56.25;42.75;;;;;7.76;47.40;99326.47;5069053;28;8897;-78
2024/01/02 08:29:11;;;;;;;;;54.75;39.75;;;;;7.81;47.04;99326.41;5070113;28;8853;-77
2024/01/02 08:31:40;;;;;;;;;42.00;37.25;;;;;7.99;47.19;99333.16;5069982;28;8854;-77
2024/01/02 08:34:09;;;;;;;;;34.20;30.60;;;;;8.07;46.48;99336.50;5068637;28;8854;-78
2024/01/02 08:36:40;;;;;;;;;34.20;29.00;;;;;8.04;46.13;99321.72;5034891;28;8846;-76
2024/01/02 08:39:09;;;;;;;;;28.60;22.40;;;;;8.14;46.21;99325.06;5069349;28;8866;-76
2024/01/02 08:41:39;;;;;;;;;5.00;4.00;;;;;8.09;45.83;99318.16;5070837;28;8865;-78
2024/01/02 08:44:08;;;;;;;;;18.80;17.60;;;;;8.27;45.51;99324.00;5070965;28;8851;-77
2024/01/02 08:46:37;;;;;;;;;14.80;14.80;;;;;8.34;44.98;99326.56;5035076;28;8830;-78
2024/01/02 08:49:07;;;;;;;;;14.00;12.00;;;;;8.19;45.01;99318.00;5069618;28;8869;-79
2024/01/02 08:51:36;;;;;;;;;11.80;11.80;;;;;8.32;44.73;99318.72;5069972;28;8861;-77
2024/01/02 08:54:06;;;;;;;;;14.40;13.80;;;;;8.58;44.40;99317.44;5069542;28;8866;-79
2024/01/02 08:56:35;;;;;;;;;14.00;14.00;;;;;8.73;44.04;99314.56;5069609;28;8933;-78
2024/01/02 08:59:05;;;;;;;;;11.80;11.80;;;;;8.89;43.30;99309.06;5069502;28;8854;-76
2024/01/02 09:01:35;;;;;;;;;15.40;12.40;;;;;8.42;43.13;99307.22;5067882;28;8884;-77
2024/01/02 09:04:05;;;;;;;;;8.60;8.40;;;;;8.31;42.55;99308.25;5069376;28;8965;-77
2024/01/02 09:06:35;;;;;;;;;9.00;8.00;;;;;8.29;42.63;99307.38;5069687;28;8886;-78
2024/01/02 09:09:05;;;;;;;;;10.20;7.80;;;;;8.33;43.29;99298.66;5050960;28;8943;-81
2024/01/02 09:11:37;;;;;;;;;12.20;10.00;;;;;8.57;42.68;99297.38;5070232;28;8854;-78
2024/01/02 09:14:06;;;;;;;;;9.00;9.00;;;;;8.67;42.77;99306.81;5034363;28;8992;-78
2024/01/02 09:16:38;;;;;;;;;10.80;10.00;;;;;8.59;42.26;99303.44;5069373;28;8850;-78
2024/01/02 09:19:07;;;;;;;;;8.00;8.00;;;;;8.61;41.93;99299.94;5069107;28;9756;-77
2024/01/02 09:21:36;;;;;;;;;7.20;6.80;;;;;8.72;41.67;99306.72;5068802;28;10056;-78
2024/01/02 09:24:05;;;;;;;;;7.00;6.20;;;;;8.72;41.37;99301.47;5050817;28;9589;-79
2024/01/02 09:26:40;;;;;;;;;12.20;11.40;;;;;8.61;42.39;99305.16;5068898;28;8854;-77
2024/01/02 09:29:10;;;;;;;;;11.20;10.20;;;;;8.53;41.44;99290.44;5068967;28;8862;-79
2024/01/02 09:31:41;;;;;;;;;12.20;9.00;;;;;8.68;41.78;99290.19;5068769;28;8854;-79
2024/01/02 09:34:10;;;;;;;;;13.00;10.80;;;;;8.62;40.87;99280.69;5068867;28;8890;-77
2024/01/02 09:36:40;;;;;;;;;13.00;12.20;;;;;8.72;41.59;99284.00;5069231;28;8983;-79
2024/01/02 09:39:09;;;;;;;;;11.00;9.40;;;;;8.90;41.36;99277.56;5069645;28;8850;-78
2024/01/02 09:42:01;;;;;;;;;12.20;12.20;;;;;9.10;40.92;99265.84;5069406;28;8851;-76
2024/01/02 09:44:44;;;;;;;;;10.60;10.60;;;;;9.14;41.22;99260.53;5050186;28;8866;-77
2024/01/02 09:47:26;;;;;;;;;11.40;8.80;;;;;9.33;40.46;99265.38;5068801;28;8879;-77
2024/01/02 09:50:02;;;;;;;;;9.80;9.60;;;;;9.46;40.27;99258.13;5069121;28;8921;-80
2024/01/02 09:52:54;;;;;;;;;11.40;7.20;;;;;9.24;39.48;99248.94;5050333;28;8955;-77
2024/01/02 09:55:34;;;;;;;;;9.20;6.20;;;;;9.04;39.49;99248.47;5067321;28;8842;-82
2024/01/02 09:58:18;;;;;;;;;9.40;9.40;;;;;8.99;39.27;99245.09;5068607;28;8858;-78
2024/01/02 10:01:02;;;;;;;;;6.60;5.40;;;;;9.07;39.74;99250.19;5051490;28;8870;-78
2024/01/02 10:04:05;;;;;;;;;13.00;8.20;;;;;9.29;39.81;99246.25;5068884;28;8850;-78
2024/01/02 10:06:50;;;;;;;;;8.80;8.80;;;;;9.41;39.39;99245.13;5034252;28;8850;-77
2024/01/02 10:09:42;;;;;;;;;5.00;5.00;;;;;9.59;37.74;99249.13;5068810;28;8846;-77
2024/01/02 10:12:22;;;;;;;;;11.80;10.80;;;;;9.78;38.72;99234.72;5068753;28;8858;-78
2024/01/02 10:15:09;;;;;;;;;20.00;19.40;;;;;9.92;41.74;99234.38;5068294;28;8831;-76
2024/01/02 10:17:48;;;;;;;;;5.60;5.00;;;;;10.02;41.83;99232.41;5068831;28;8850;-77
2024/01/02 10:20:21;;;;;;;;;19.60;18.80;;;;;9.92;41.46;99223.03;5067368;28;8965;-76
2024/01/02 10:22:59;;;;;;;;;18.00;16.00;;;;;9.99;40.94;99222.84;5068331;28;8879;-76
2024/01/02 10:25:30;;;;;;;;;11.60;11.60;;;;;10.06;40.63;99222.69;5067575;28;8838;-78
2024/01/02 10:28:09;;;;;;;;;16.00;16.00;;;;;10.19;40.90;99211.84;5069142;28;8951;-78
2024/01/02 10:30:52;;;;;;;;;11.80;11.00;;;;;10.31;39.10;99220.31;5068860;28;8839;-78
2024/01/02 10:33:32;;;;;;;;;15.00;13.80;;;;;10.34;39.70;99218.47;5068253;28;8877;-78
2024/01/02 10:36:03;;;;;;;;;16.00;15.60;;;;;10.34;40.45;99201.84;5067300;28;9613;-77
2024/01/02 10:38:43;;;;;;;;;14.80;14.80;;;;;10.28;40.99;99188.88;5036891;28;8826;-76
2024/01/02 10:41:26;;;;;;;;;17.20;17.20;;;;;10.40;40.93;99186.78;5072387;28;8846;-78
2024/01/02 10:44:04;;;;;;;;;15.60;14.40;;;;;10.54;40.48;99183.81;5070746;28;8839;-78
2024/01/02 10:46:41;;;;;;;;;13.00;13.00;;;;;10.52;40.12;99183.00;5072196;28;8831;-78
2024/01/02 10:49:23;;;;;;;;;14.40;14.40;;;;;10.56;39.43;99176.75;5037326;28;9012;-77
2024/01/02 10:52:00;;;;;;;;;11.60;11.20;;;;;10.54;39.17;99168.03;5070309;28;8886;-78
2024/01/02 10:54:36;;;;;;;;;10.80;10.60;;;;;10.76;38.33;99165.72;5072060;28;8866;-76
2024/01/02 10:57:07;;;;;;;;;10.80;9.80;;;;;10.70;38.40;99163.22;5071838;28;8869;-77
2024/01/02 10:59:58;;;;;;;;;8.20;7.20;;;;;10.63;37.31;99156.41;5071736;28;8874;-77
2024/01/02 11:02:41;;;;;;;;;12.00;11.00;;;;;10.88;36.62;99156.63;5071293;28;8943;-77
2024/01/02 11:05:24;;;;;;;;;6.40;6.20;;;;;10.82;34.15;99146.25;5070451;28;8864;-76
2024/01/02 11:08:01;;;;;;;;;5.80;5.60;;;;;10.96;33.76;99149.38;5071505;28;8954;-75
2024/01/02 11:10:33;;;;;;;;;7.60;5.40;;;;;11.07;34.71;99151.69;5071614;28;8893;-77
2024/01/02 11:13:03;;;;;;;;;7.00;7.00;;;;;11.18;33.73;99141.72;5071332;28;9625;-77
2024/01/02 11:15:45;;;;;;;;;3.80;3.80;;;;;11.17;31.99;99134.72;5055121;28;8838;-77
2024/01/02 11:18:18;;;;;;;;;6.40;6.40;;;;;11.22;32.86;99133.72;5032877;28;8916;-78
2024/01/02 11:20:58;;;;;;;;;4.80;4.80;;;;;10.97;32.98;99127.44;5049318;28;8896;-78
2024/01/02 11:23:30;;;;;;;;;5.40;5.40;;;;;10.92;32.12;99131.97;5032375;28;8882;-77
2024/01/02 11:26:13;;;;;;;;;4.00;4.00;;;;;11.08;32.96;99135.00;5017198;28;8882;-76
2024/01/02 11:28:46;;;;;;;;;3.80;2.80;;;;;11.00;32.06;99128.25;5032231;28;8877;-76
2024/01/02 11:31:16;;;;;;;;;5.00;4.40;;;;;10.99;32.47;99127.38;5048996;28;8869;-77
2024/01/02 11:33:59;;;;;;;;;6.00;6.00;;;;;10.98;31.44;99126.50;4999067;28;8858;-78
2024/01/02 11:36:40;;;;;;;;;5.00;5.00;;;;;10.82;32.07;99127.00;5048658;28;9666;-78
2024/01/02 11:39:13;;;;;;;;;6.60;5.80;;;;;10.88;32.28;99109.28;5048864;28;8954;-76
2024/01/02 11:41:55;;;;;;;;;5.20;4.80;;;;;10.84;32.44;99105.03;5049016;28;8984;-76
2024/01/02 11:44:37;;;;;;;;;4.20;4.20;;;;;10.96;32.20;99098.56;5016255;28;8870;-77
2024/01/02 11:47:16;;;;;;;;;4.60;4.60;;;;;10.79;32.11;99083.28;5048617;28;8847;-76
2024/01/02 11:49:49;;;;;;;;;4.60;4.60;;;;;10.72;31.50;99084.31;5021879;28;8862;-78
2024/01/02 11:52:20;;;;;;;;;4.60;4.00;;;;;10.80;30.83;99082.34;5069743;28;8878;-77